createdAt,value
2022-10-09T00:01:11.902Z,100.00
2022-10-09T00:03:40.674Z,100.00
2022-10-09T00:06:09.221Z,100.00
2022-10-09T00:08:39.355Z,100.00
2022-10-09T00:11:07.610Z,100.00
2022-10-09T00:13:34.632Z,100.00
2022-10-09T00:16:08.004Z,100.00
2022-10-09T00:18:35.759Z,100.00
2022-10-09T00:21:03.054Z,100.00
2022-10-09T00:23:29.703Z,100.00
2022-10-09T00:25:59.028Z,100.00
2022-10-09T00:28:27.921Z,100.00
2022-10-09T00:30:54.774Z,100.00
2022-10-09T00:33:21.874Z,100.00
2022-10-09T00:35:48.831Z,100.00
2022-10-09T00:38:15.478Z,100.00
2022-10-09T00:40:42.437Z,100.00
2022-10-09T00:43:19.376Z,100.00
2022-10-09T00:45:54.040Z,100.00
2022-10-09T00:48:22.318Z,100.00
2022-10-09T00:50:59.624Z,100.00
2022-10-09T00:53:29.793Z,100.00
2022-10-09T00:55:57.799Z,100.00
2022-10-09T00:58:25.387Z,100.00
2022-10-09T01:00:52.800Z,100.00
2022-10-09T01:03:19.551Z,100.00
2022-10-09T01:06:15.956Z,100.00
2022-10-09T01:08:57.052Z,100.00
2022-10-09T01:11:56.205Z,100.00
2022-10-09T01:14:34.097Z,100.00
2022-10-09T01:17:35.727Z,100.00
2022-10-09T01:20:49.208Z,100.00
2022-10-09T01:23:28.023Z,100.00
2022-10-09T01:26:25.639Z,100.00
2022-10-09T01:28:57.135Z,100.00
2022-10-09T01:31:27.629Z,100.00
2022-10-09T01:33:54.416Z,100.00
2022-10-09T01:36:23.082Z,100.00
2022-10-09T01:38:50.823Z,100.00
2022-10-09T01:41:17.866Z,100.00
2022-10-09T01:43:44.450Z,100.00
2022-10-09T01:46:33.007Z,100.00
2022-10-09T01:49:21.403Z,100.00
2022-10-09T01:52:25.748Z,100.00
2022-10-09T01:55:00.376Z,100.00
2022-10-09T01:58:00.748Z,100.00
2022-10-09T02:00:32.364Z,100.00
2022-10-09T02:03:01.134Z,100.00
2022-10-09T02:05:30.321Z,100.00
2022-10-09T02:07:58.490Z,100.00
2022-10-09T02:10:26.578Z,100.00
2022-10-09T02:12:57.506Z,100.00
2022-10-09T02:15:38.801Z,100.00
2022-10-09T02:18:13.617Z,100.00
2022-10-09T02:20:45.787Z,100.00
2022-10-09T02:23:14.955Z,100.00
2022-10-09T02:25:41.730Z,100.00
2022-10-09T02:28:09.730Z,100.00
2022-10-09T02:30:47.536Z,100.00
2022-10-09T02:33:14.207Z,100.00
2022-10-09T02:35:41.037Z,100.00
2022-10-09T02:38:07.615Z,100.00
2022-10-09T02:40:34.182Z,100.00
2022-10-09T02:43:00.976Z,100.00
2022-10-09T02:45:27.579Z,100.00
2022-10-09T02:47:54.228Z,100.00
2022-10-09T02:50:20.812Z,100.00
2022-10-09T02:52:47.625Z,100.00
2022-10-09T02:55:14.404Z,100.00
2022-10-09T02:57:40.961Z,100.00
2022-10-09T03:00:08.075Z,100.00
2022-10-09T03:02:34.770Z,100.00
2022-10-09T03:05:01.527Z,100.00
2022-10-09T03:07:28.117Z,100.00
2022-10-09T03:09:54.778Z,100.00
2022-10-09T03:12:22.130Z,100.00
2022-10-09T03:14:48.729Z,100.00
2022-10-09T03:17:15.444Z,100.00
2022-10-09T03:19:42.423Z,100.00
2022-10-09T03:22:09.053Z,100.00
2022-10-09T03:24:35.712Z,100.00
2022-10-09T03:27:02.295Z,100.00
2022-10-09T03:29:28.888Z,100.00
2022-10-09T03:31:55.517Z,100.00
2022-10-09T03:34:22.119Z,100.00
2022-10-09T03:36:48.764Z,100.00
2022-10-09T03:39:15.367Z,100.00
2022-10-09T03:41:41.978Z,100.00
2022-10-09T03:44:08.547Z,100.00
2022-10-09T03:46:35.218Z,100.00
2022-10-09T03:49:01.860Z,100.00
2022-10-09T03:51:28.525Z,100.00
2022-10-09T03:53:55.103Z,100.00
2022-10-09T03:56:21.700Z,100.00
2022-10-09T03:58:48.348Z,100.00
2022-10-09T04:01:15.022Z,100.00
2022-10-09T04:03:41.656Z,100.00
2022-10-09T04:06:08.230Z,100.00
2022-10-09T04:08:35.704Z,100.00
2022-10-09T04:11:02.429Z,100.00
2022-10-09T04:13:29.092Z,100.00
2022-10-09T04:15:56.343Z,100.00
2022-10-09T04:18:23.392Z,100.00
2022-10-09T04:20:55.474Z,100.00
2022-10-09T04:23:25.054Z,100.00
2022-10-09T04:25:56.395Z,100.00
2022-10-09T04:28:23.463Z,100.00
2022-10-09T04:30:50.330Z,100.00
2022-10-09T04:33:17.101Z,100.00
2022-10-09T04:35:45.266Z,100.00
2022-10-09T04:38:11.926Z,100.00
2022-10-09T04:40:38.527Z,100.00
2022-10-09T04:43:05.220Z,100.00
2022-10-09T04:45:32.010Z,100.00
2022-10-09T04:47:58.675Z,100.00
2022-10-09T04:50:25.396Z,100.00
2022-10-09T04:52:58.090Z,100.00
2022-10-09T04:55:24.683Z,100.00
2022-10-09T04:57:51.267Z,100.00
2022-10-09T05:00:17.956Z,100.00
2022-10-09T05:02:44.559Z,100.00
2022-10-09T05:05:11.747Z,100.00
2022-10-09T05:07:38.635Z,100.00
2022-10-09T05:10:06.200Z,100.00
2022-10-09T05:12:32.839Z,100.00
2022-10-09T05:14:59.430Z,100.00
2022-10-09T05:17:26.085Z,100.00
2022-10-09T05:19:52.772Z,100.00
2022-10-09T05:22:19.378Z,100.00
2022-10-09T05:24:46.020Z,100.00
2022-10-09T05:27:12.628Z,100.00
2022-10-09T05:29:39.268Z,100.00
2022-10-09T05:32:06.100Z,100.00
2022-10-09T05:34:34.568Z,100.00
2022-10-09T05:37:01.179Z,100.00
2022-10-09T05:39:27.852Z,100.00
2022-10-09T05:41:54.450Z,100.00
2022-10-09T05:44:21.059Z,100.00
2022-10-09T05:46:47.671Z,100.00
2022-10-09T05:49:14.292Z,100.00
2022-10-09T05:51:43.988Z,100.00
2022-10-09T05:54:15.767Z,100.00
2022-10-09T05:56:43.423Z,100.00
2022-10-09T05:59:13.791Z,100.00
2022-10-09T06:01:46.517Z,100.00
2022-10-09T06:04:16.309Z,100.00
2022-10-09T06:06:43.234Z,100.00
2022-10-09T06:09:11.218Z,100.00
2022-10-09T06:11:40.032Z,100.00
2022-10-09T06:14:09.205Z,100.00
2022-10-09T06:16:38.722Z,100.00
2022-10-09T06:19:06.963Z,100.00
2022-10-09T06:21:34.519Z,100.00
2022-10-09T06:24:02.753Z,100.00
2022-10-09T06:26:30.438Z,100.00
2022-10-09T06:28:58.884Z,100.00
2022-10-09T06:31:27.846Z,100.00
2022-10-09T06:33:55.127Z,100.00
2022-10-09T06:36:27.166Z,100.00
2022-10-09T06:38:54.161Z,100.00
2022-10-09T06:41:23.583Z,100.00
2022-10-09T06:43:52.650Z,100.00
2022-10-09T06:46:20.935Z,100.00
2022-10-09T06:48:47.626Z,100.00
2022-10-09T06:51:16.763Z,100.00
2022-10-09T06:53:46.359Z,100.00
2022-10-09T06:56:13.314Z,100.00
2022-10-09T06:58:40.631Z,100.00
2022-10-09T07:01:07.303Z,100.00
2022-10-09T07:03:35.214Z,100.00
2022-10-09T07:06:13.052Z,100.00
2022-10-09T07:08:41.610Z,100.00
2022-10-09T07:11:16.387Z,100.00
2022-10-09T07:13:44.114Z,100.00
2022-10-09T07:16:11.508Z,100.00
2022-10-09T07:18:39.435Z,100.00
2022-10-09T07:21:08.659Z,100.00
2022-10-09T07:23:36.141Z,100.00
2022-10-09T07:26:12.362Z,100.00
2022-10-09T07:28:40.230Z,100.00
2022-10-09T07:31:07.172Z,100.00
2022-10-09T07:33:34.096Z,100.00
2022-10-09T07:36:02.411Z,100.00
2022-10-09T07:38:29.765Z,100.00
2022-10-09T07:41:04.078Z,100.00
2022-10-09T07:43:30.832Z,100.00
2022-10-09T07:46:01.907Z,100.00
2022-10-09T07:48:28.775Z,100.00
2022-10-09T07:50:56.884Z,100.00
2022-10-09T07:53:23.856Z,100.00
2022-10-09T07:55:50.555Z,100.00
2022-10-09T07:58:17.899Z,100.00
2022-10-09T08:00:44.494Z,100.00
2022-10-09T08:03:11.239Z,100.00
2022-10-09T08:05:37.844Z,100.00
2022-10-09T08:08:04.476Z,100.00
2022-10-09T08:10:31.996Z,100.00
2022-10-09T08:12:58.707Z,100.00
2022-10-09T08:15:26.209Z,100.00
2022-10-09T08:17:54.059Z,100.00
2022-10-09T08:20:20.738Z,100.00
2022-10-09T08:22:47.664Z,100.00
2022-10-09T08:25:14.704Z,100.00
2022-10-09T08:27:41.268Z,100.00
2022-10-09T08:30:08.492Z,100.00
2022-10-09T08:32:35.139Z,100.00
2022-10-09T08:35:01.848Z,100.00
2022-10-09T08:37:28.483Z,100.00
2022-10-09T08:39:55.242Z,100.00
2022-10-09T08:42:43.463Z,100.00
2022-10-09T08:45:16.860Z,100.00
2022-10-09T08:47:50.479Z,100.00
2022-10-09T08:50:24.411Z,100.00
2022-10-09T08:53:26.525Z,100.00
2022-10-09T08:55:56.552Z,100.00
2022-10-09T08:58:29.007Z,100.00
2022-10-09T09:01:03.861Z,100.00
2022-10-09T09:03:39.428Z,100.00
2022-10-09T09:06:12.026Z,100.00
2022-10-09T09:08:44.098Z,100.00
2022-10-09T09:11:38.028Z,100.00
2022-10-09T09:14:29.627Z,100.00
2022-10-09T09:17:10.396Z,100.00
2022-10-09T09:19:57.115Z,100.00
2022-10-09T09:22:25.085Z,100.00
2022-10-09T09:24:54.150Z,100.00
2022-10-09T09:27:27.211Z,100.00
2022-10-09T09:29:53.832Z,100.00
2022-10-09T09:32:26.219Z,100.00
2022-10-09T09:35:02.605Z,100.00
2022-10-09T09:37:29.285Z,100.00
2022-10-09T09:42:43.592Z,97.68
2022-10-09T09:45:19.657Z,94.20
2022-10-09T09:47:51.797Z,87.09
2022-10-09T09:51:10.309Z,80.81
2022-10-09T09:53:32.265Z,74.53
2022-10-09T09:55:59.254Z,74.79
2022-10-09T09:58:50.891Z,67.27
2022-10-09T10:01:29.067Z,67.57
2022-10-09T10:03:58.943Z,68.41
2022-10-09T10:06:29.042Z,73.40
2022-10-09T10:09:05.280Z,76.10
2022-10-09T10:11:34.939Z,76.47
2022-10-09T10:14:14.645Z,70.37
2022-10-09T10:16:42.369Z,64.67
2022-10-09T10:19:49.635Z,58.77
2022-10-09T10:22:28.077Z,59.15
2022-10-09T10:24:57.946Z,57.36
2022-10-09T10:27:35.394Z,57.62
2022-10-09T10:30:05.483Z,57.96
2022-10-09T10:32:47.200Z,60.44
2022-10-09T10:35:20.973Z,64.02
2022-10-09T10:37:53.235Z,65.17
2022-10-09T10:40:32.125Z,65.67
2022-10-09T10:43:09.884Z,65.09
2022-10-09T10:46:11.296Z,60.62
2022-10-09T10:48:42.207Z,60.70
2022-10-09T10:51:23.918Z,62.74
2022-10-09T10:54:14.861Z,67.30
2022-10-09T10:57:03.225Z,67.97
2022-10-09T11:00:12.072Z,66.88
2022-10-09T11:03:03.225Z,68.86
2022-10-09T11:05:57.211Z,69.13
2022-10-09T11:08:36.120Z,65.76
2022-10-09T11:11:13.922Z,64.39
2022-10-09T11:14:19.951Z,63.25
2022-10-09T11:17:16.708Z,58.95
2022-10-09T11:20:15.747Z,58.29
2022-10-09T11:23:03.893Z,56.54
2022-10-09T11:25:41.473Z,55.32
2022-10-09T11:28:19.424Z,56.32
2022-10-09T11:30:59.456Z,55.21
2022-10-09T11:33:44.304Z,55.95
2022-10-09T11:36:24.467Z,54.39
2022-10-09T11:39:06.442Z,53.86
2022-10-09T11:41:35.368Z,54.89
2022-10-09T11:44:32.701Z,53.70
2022-10-09T11:47:14.335Z,52.55
2022-10-09T11:50:02.850Z,52.19
2022-10-09T11:52:49.510Z,51.90
2022-10-09T11:55:21.328Z,51.30
2022-10-09T11:57:48.853Z,52.46
2022-10-09T12:00:16.930Z,51.88
2022-10-09T12:02:44.399Z,52.24
2022-10-09T12:05:36.334Z,52.41
2022-10-09T12:08:12.982Z,50.37
2022-10-09T12:10:53.903Z,50.74
2022-10-09T12:13:45.074Z,50.02
2022-10-09T12:16:29.243Z,50.78
2022-10-09T12:18:58.086Z,49.77
2022-10-09T12:21:50.809Z,49.67
2022-10-09T12:24:25.172Z,50.60
2022-10-09T12:26:55.066Z,49.96
2022-10-09T12:29:28.767Z,49.56
2022-10-09T12:32:01.624Z,49.07
2022-10-09T12:34:33.528Z,50.16
2022-10-09T12:37:09.948Z,51.68
2022-10-09T12:39:37.469Z,48.79
2022-10-09T12:42:05.088Z,48.40
2022-10-09T12:44:38.602Z,47.75
2022-10-09T12:47:08.648Z,46.92
2022-10-09T12:49:36.131Z,48.91
2022-10-09T12:52:03.062Z,49.12
2022-10-09T12:54:31.363Z,49.46
2022-10-09T12:56:59.502Z,48.60
2022-10-09T12:59:27.860Z,48.88
2022-10-09T13:01:58.175Z,48.44
2022-10-09T13:04:32.324Z,49.11
2022-10-09T13:07:16.656Z,49.17
2022-10-09T13:09:43.399Z,47.45
2022-10-09T13:12:20.145Z,49.99
2022-10-09T13:14:57.398Z,49.33
2022-10-09T13:17:41.624Z,49.43
2022-10-09T13:20:17.340Z,49.05
2022-10-09T13:22:58.279Z,49.85
2022-10-09T13:25:29.402Z,49.78
2022-10-09T13:27:56.876Z,49.43
2022-10-09T13:30:23.952Z,48.63
2022-10-09T13:32:50.758Z,48.07
2022-10-09T13:35:17.521Z,47.75
2022-10-09T13:37:44.293Z,49.85
2022-10-09T13:40:15.700Z,48.40
2022-10-09T13:42:52.209Z,50.47
2022-10-09T13:45:18.898Z,49.96
2022-10-09T13:47:45.639Z,50.19
2022-10-09T13:50:15.991Z,50.00
2022-10-09T13:52:42.651Z,49.22
2022-10-09T13:55:10.112Z,49.31
2022-10-09T13:57:36.771Z,50.49
2022-10-09T14:00:05.072Z,49.59
2022-10-09T14:02:39.080Z,50.60
2022-10-09T14:05:06.144Z,50.74
2022-10-09T14:07:32.730Z,50.81
2022-10-09T14:09:59.414Z,50.18
2022-10-09T14:12:26.015Z,51.12
2022-10-09T14:14:53.837Z,51.75
2022-10-09T14:17:20.517Z,52.46
2022-10-09T14:19:48.049Z,53.00
2022-10-09T14:22:15.537Z,53.31
2022-10-09T14:24:42.781Z,53.45
2022-10-09T14:27:09.608Z,53.59
2022-10-09T14:29:38.038Z,54.68
2022-10-09T14:32:05.570Z,55.71
2022-10-09T14:34:32.289Z,56.26
2022-10-09T14:36:58.941Z,57.93
2022-10-09T14:39:25.637Z,58.46
2022-10-09T14:41:52.328Z,59.72
2022-10-09T14:44:19.015Z,60.72
2022-10-09T14:46:45.640Z,60.79
2022-10-09T14:49:12.398Z,62.58
2022-10-09T14:51:40.721Z,63.67
2022-10-09T14:54:08.475Z,65.35
2022-10-09T14:56:36.114Z,65.24
2022-10-09T14:59:05.827Z,65.59
2022-10-09T15:01:33.813Z,66.69
2022-10-09T15:04:00.928Z,67.00
2022-10-09T15:06:28.128Z,67.89
2022-10-09T15:09:03.050Z,68.64
2022-10-09T15:11:33.982Z,67.45
2022-10-09T15:14:00.656Z,68.91
2022-10-09T15:16:27.342Z,69.00
2022-10-09T15:18:55.168Z,67.74
2022-10-09T15:21:27.430Z,68.12
2022-10-09T15:23:56.446Z,68.81
2022-10-09T15:26:25.426Z,69.57
2022-10-09T15:28:52.191Z,70.09
2022-10-09T15:31:24.987Z,70.92
2022-10-09T15:33:53.105Z,71.40
2022-10-09T15:36:20.982Z,71.27
2022-10-09T15:38:47.893Z,72.00
2022-10-09T15:41:25.294Z,73.67
2022-10-09T15:43:53.979Z,74.06
2022-10-09T15:46:21.142Z,74.13
2022-10-09T15:48:48.515Z,74.63
2022-10-09T15:51:15.741Z,75.95
2022-10-09T15:53:44.920Z,75.81
2022-10-09T15:56:20.758Z,75.97
2022-10-09T15:58:47.496Z,76.61
2022-10-09T16:01:16.032Z,78.23
2022-10-09T16:03:43.583Z,80.21
2022-10-09T16:06:13.031Z,83.33
2022-10-09T16:08:41.096Z,83.18
2022-10-09T16:11:11.260Z,83.94
2022-10-09T16:13:42.338Z,86.50
2022-10-09T16:16:14.251Z,86.65
2022-10-09T16:18:40.962Z,87.48
2022-10-09T16:21:10.191Z,88.33
2022-10-09T16:23:37.161Z,89.06
2022-10-09T16:26:04.408Z,90.45
2022-10-09T16:28:32.522Z,92.83
2022-10-09T16:30:59.417Z,94.83
2022-10-09T16:33:26.421Z,97.07
2022-10-09T16:35:53.189Z,99.23
2022-10-09T16:38:20.472Z,100.00
2022-10-09T16:41:01.365Z,100.00
2022-10-09T16:43:32.231Z,100.00
2022-10-09T16:46:11.932Z,100.00
2022-10-09T16:48:38.639Z,100.00
2022-10-09T16:51:10.830Z,100.00
2022-10-09T16:53:37.681Z,100.00
2022-10-09T16:56:11.007Z,100.00
2022-10-09T16:58:37.893Z,100.00
2022-10-09T17:01:09.436Z,100.00
2022-10-09T17:03:37.014Z,100.00
2022-10-09T17:06:08.237Z,100.00
2022-10-09T17:08:35.136Z,100.00
2022-10-09T17:11:01.903Z,100.00
2022-10-09T17:13:28.666Z,100.00
2022-10-09T17:15:55.315Z,100.00
2022-10-09T17:18:22.074Z,100.00
2022-10-09T17:20:48.842Z,100.00
2022-10-09T17:23:15.636Z,100.00
2022-10-09T17:25:43.942Z,100.00
2022-10-09T17:28:10.874Z,100.00
2022-10-09T17:30:39.510Z,100.00
2022-10-09T17:33:06.657Z,100.00
2022-10-09T17:35:33.652Z,100.00
2022-10-09T17:38:00.471Z,100.00
2022-10-09T17:40:27.280Z,100.00
2022-10-09T17:42:53.947Z,100.00
2022-10-09T17:45:20.587Z,100.00
2022-10-09T17:47:47.283Z,100.00
2022-10-09T17:50:14.044Z,100.00
2022-10-09T17:52:40.798Z,100.00
2022-10-09T17:55:08.178Z,100.00
2022-10-09T17:57:35.458Z,100.00
2022-10-09T18:00:02.242Z,100.00
2022-10-09T18:02:31.596Z,100.00
2022-10-09T18:04:58.375Z,100.00
2022-10-09T18:07:25.278Z,100.00
2022-10-09T18:09:52.243Z,100.00
2022-10-09T18:12:19.173Z,100.00
2022-10-09T18:14:46.269Z,100.00
2022-10-09T18:17:13.412Z,100.00
2022-10-09T18:19:40.161Z,100.00
2022-10-09T18:22:06.993Z,100.00
2022-10-09T18:24:34.070Z,100.00
2022-10-09T18:27:00.975Z,100.00
2022-10-09T18:29:27.919Z,100.00
2022-10-09T18:31:55.900Z,100.00
2022-10-09T18:34:23.576Z,100.00
2022-10-09T18:36:52.186Z,100.00
2022-10-09T18:39:21.536Z,100.00
2022-10-09T18:41:48.552Z,100.00
2022-10-09T18:44:19.549Z,100.00
2022-10-09T18:46:59.978Z,100.00
2022-10-09T18:49:31.455Z,100.00
2022-10-09T18:52:00.459Z,100.00
2022-10-09T18:54:28.963Z,100.00
2022-10-09T18:56:56.263Z,100.00
2022-10-09T18:59:23.168Z,100.00
2022-10-09T19:01:49.906Z,100.00
2022-10-09T19:04:17.097Z,100.00
2022-10-09T19:06:44.175Z,100.00
2022-10-09T19:09:11.212Z,100.00
2022-10-09T19:11:38.267Z,100.00
2022-10-09T19:14:05.348Z,100.00
2022-10-09T19:16:33.723Z,100.00
2022-10-09T19:19:00.604Z,100.00
2022-10-09T19:21:28.081Z,100.00
2022-10-09T19:23:55.240Z,100.00
2022-10-09T19:26:23.337Z,100.00
2022-10-09T19:28:50.543Z,100.00
2022-10-09T19:31:17.588Z,100.00
2022-10-09T19:33:44.567Z,100.00
2022-10-09T19:36:13.667Z,100.00
2022-10-09T19:38:46.581Z,100.00
2022-10-09T19:41:15.658Z,100.00
2022-10-09T19:43:42.966Z,100.00
2022-10-09T19:46:14.307Z,100.00
2022-10-09T19:48:41.846Z,100.00
2022-10-09T19:51:15.789Z,100.00
2022-10-09T19:53:43.633Z,100.00
2022-10-09T19:56:16.427Z,100.00
2022-10-09T20:02:49.727Z,100.00
2022-10-09T20:05:16.688Z,100.00
2022-10-09T20:07:43.913Z,100.00
2022-10-09T20:10:10.792Z,100.00
2022-10-09T20:12:37.535Z,100.00
2022-10-09T20:15:04.710Z,100.00
2022-10-09T20:17:31.581Z,100.00
2022-10-09T20:19:58.289Z,100.00
2022-10-09T20:22:25.039Z,100.00
2022-10-09T20:24:53.226Z,100.00
2022-10-09T20:27:19.908Z,100.00
2022-10-09T20:29:47.838Z,100.00
2022-10-09T20:32:14.855Z,100.00
2022-10-09T20:34:41.880Z,100.00
2022-10-09T20:37:08.657Z,100.00
2022-10-09T20:39:35.499Z,100.00
2022-10-09T20:42:02.369Z,100.00
2022-10-09T20:44:29.240Z,100.00
2022-10-09T20:46:56.882Z,100.00
2022-10-09T20:49:23.722Z,100.00
2022-10-09T20:51:51.238Z,100.00
2022-10-09T20:54:19.901Z,100.00
2022-10-09T20:56:47.606Z,100.00
2022-10-09T20:59:14.778Z,100.00
2022-10-09T21:01:41.640Z,100.00
2022-10-09T21:04:10.353Z,100.00
2022-10-09T21:06:37.183Z,100.00
2022-10-09T21:09:04.254Z,100.00
2022-10-09T21:11:32.494Z,100.00
2022-10-09T21:13:59.160Z,100.00
2022-10-09T21:16:25.879Z,100.00
2022-10-09T21:18:57.699Z,100.00
2022-10-09T21:21:24.714Z,100.00
2022-10-09T21:23:53.272Z,100.00
2022-10-09T21:26:21.906Z,100.00
2022-10-09T21:28:49.763Z,100.00
2022-10-09T21:31:24.479Z,100.00
2022-10-09T21:33:51.167Z,100.00
2022-10-09T21:36:29.785Z,100.00
2022-10-09T21:38:56.535Z,100.00
2022-10-09T21:42:38.866Z,100.00
2022-10-09T21:45:05.976Z,100.00
2022-10-09T21:47:33.123Z,100.00
2022-10-09T21:49:59.989Z,100.00
2022-10-09T21:52:26.790Z,100.00
2022-10-09T21:54:53.422Z,100.00
2022-10-09T21:57:20.083Z,100.00
2022-10-09T21:59:47.379Z,100.00
2022-10-09T22:02:14.089Z,100.00
2022-10-09T22:04:40.887Z,100.00
2022-10-09T22:07:07.661Z,100.00
2022-10-09T22:09:34.389Z,100.00
2022-10-09T22:12:01.327Z,100.00
2022-10-09T22:14:28.047Z,100.00
2022-10-09T22:16:54.715Z,100.00
2022-10-09T22:19:21.506Z,100.00
2022-10-09T22:21:48.985Z,100.00
2022-10-09T22:24:15.690Z,100.00
2022-10-09T22:26:42.335Z,100.00
2022-10-09T22:29:09.034Z,100.00
2022-10-09T22:31:35.726Z,100.00
2022-10-09T22:34:02.788Z,100.00
2022-10-09T22:36:32.049Z,100.00
2022-10-09T22:39:01.758Z,100.00
2022-10-09T22:41:29.888Z,100.00
2022-10-09T22:44:00.455Z,100.00
2022-10-09T22:46:29.988Z,100.00
2022-10-09T22:48:57.523Z,100.00
2022-10-09T22:51:25.849Z,100.00
2022-10-09T22:53:52.665Z,100.00
2022-10-09T22:56:22.089Z,100.00
2022-10-09T22:58:49.912Z,100.00
2022-10-09T23:01:25.118Z,100.00
2022-10-09T23:03:52.051Z,100.00
2022-10-09T23:06:20.104Z,100.00
2022-10-09T23:08:48.431Z,100.00
2022-10-09T23:11:16.475Z,100.00
2022-10-09T23:13:43.647Z,100.00
2022-10-09T23:16:12.634Z,100.00
2022-10-09T23:18:40.063Z,100.00
2022-10-09T23:21:10.839Z,100.00
2022-10-09T23:23:37.798Z,100.00
2022-10-09T23:26:09.256Z,100.00
2022-10-09T23:28:36.277Z,100.00
2022-10-09T23:31:05.607Z,100.00
2022-10-09T23:33:32.493Z,100.00
2022-10-09T23:36:01.362Z,100.00
2022-10-09T23:38:28.566Z,100.00
2022-10-09T23:41:01.269Z,100.00
2022-10-09T23:43:29.815Z,100.00
2022-10-09T23:45:58.904Z,100.00
2022-10-09T23:48:26.295Z,100.00
2022-10-09T23:50:54.500Z,100.00
2022-10-09T23:53:22.349Z,100.00
2022-10-09T23:55:49.154Z,100.00
2022-10-09T23:58:20.564Z,100.00
